Wunstorf, Germany

1:05 PM CET on February 21, 2017 (GMT +0100)
Leinechaussee | | Change Station

Elev 144 ft 52.45 °N, 9.46 °E | Updated 3 seconds ago

Mostly Cloudy
Mostly Cloudy
48.4 °F
Feels Like 48 °F
N
3.1
Wind Variable Wind from WNW
Gusts 9.9 mph

Today
High -- | Low -- °F
--% Chance of Precip.
Yesterday
High -- | Low -- °F
Precip. -- in
Pressure 29.86 in
Visibility 6.2 miles
Clouds Scattered Clouds 2200 ft
Mostly Cloudy 6000 ft
Windchill 48 °F
Dew Point 45 °F
Humidity 88%
Rainfall 0.00 in
Snow Depth Not available.
7:25 AM 5:46 PM
Waning Crescent, 26% visible
METAR EDDV 211150Z 28016KT 9999 SCT022 BKN060 09/04 Q1011 TEMPO 27015G25KT
Pressure 29.86 in
Visibility 6.2 miles
Clouds Scattered Clouds 2200 ft
Mostly Cloudy 6000 ft
Windchill 48 °F
Dew Point 45 °F
Humidity 88%
Rainfall 0.00 in
Snow Depth Not available.
7:25 AM 5:46 PM
Waning Crescent, 26% visible
METAR EDDV 211150Z 28016KT 9999 SCT022 BKN060 09/04 Q1011 TEMPO 27015G25KT

Get Your Daily Forecast Email!

Thanks for signing up!

Be on the lookout for a verification email in your inbox.

You'll start receiving the daily forecast at 8 AM.

×

10-Day Weather Forecast

×

Almanac

Astronomy

Feb. 21, 2017 Rise Set
Actual Time
Civil Twilight
Nautical Twilight
Astronomical Twilight
Moon
Length of Visible Light
Length of Day
Tomorrow will be .
, % of the Moon is Illuminated

Today's Extremes

Country Highs Country Lows

Community

WunderPhotos

Upload Photos

1,962,540 photos uploaded!

WunderBlog® & News

Nearby

Air Quality

  Air Quality AQ Index Pollutant
Not available.

Snow Depth

Station Depth Elevation

Earthquake Activity

City Distance Mag. Time & Date
Minimum magnitude displayed is 2.5.

Coastal Water Temperatures

Place Temperature

Stations

Nearby Weather Stations

Station Location Temp. Windchill Dew Point Humidity Wind Precip. Elev Updated Type